Portada
METAR-TAF:

METAR-TAF

Aeroports :

Porto Alegre, Rio Grande do Sul, Brasil

latitud: 30-01S, longitud: 051-13W, altitud: 47 m

Observació

L'informe es va fer fa 7 hores i 0 minuts, a les 03:00 UTC
Vent 4 kt del Est
Temperatura 20°C
Humitat 94%
Pressió 1014 hPa
Visibilitat 10 km o més
sense núvols per sota de 1500 mi sense presència de cumulonimbus.

METAR: SBCO 200300Z 10004KT CAVOK 20/19 Q1014

Hora: 08:00 (10:00 UTC)

Pronòstic

L'informe es va fer fa 7 hores i 44 minuts, a les 02:16 UTC
Pronòstic vàlid del 20 a les 06 UTC al 20 a les 18 UTC
Vent 5 kt del Est/Sud-Est
Visibilitat 10 km o més
sense núvols per sota de 1500 mi sense presència de cumulonimbus.
Probabilitat 40%
l' 20 a les 06 UTC al 20 a les 10 UTC
Visibilitat: 3000 m
boirina
Evolucionant progressivament
l' 20 a les 17 UTC al 20 a les 18 UTC
Vent 11 kt del Est/Sud-Est

TAF: SBCO 200216Z 2006/2018 12005KT CAVOK TN17/2008Z TX32/2017Z PROB40 2006/2010 3000 BR NSC BECMG 2017/2018 12011KT RMK PDW

Observacions i pronòstics meteorològics de més de 4000 aeroports (METAR i TAF).

Les estacions disponibles són els punts grocs i vermells al mapa.

Posi el ratolí al punt desitjat per veure el nom de l'estació.

Feu clic per veure les observacions i els pronòstics meteorològics.

Per canviar el mapa: feu clic els botons verds amb una creu de color negre per apropar; al botó verd amb un guió per allunyar la imatge; o en les fletxes verdes per a mapes adjacents.


METAR-TAF: